Time;durP1;ratioP1;P1;durP2;ratioP2;P2;SDS_P1;SDS_P2;PMS_P1;PMS_P2;Temp;Humidity;BMP_temperature;BMP_pressure;BME280_temperature;BME280_humidity;BME280_pressure;Samples;Min_cycle;Max_cycle;Signal;HPM_P1;HPM_P2
2024/02/08 00:00:07;;;;;;;20.42;18.90;;;2.80;99.90;;;;;;4733490;30;20284;-41
2024/02/08 00:02:33;;;;;;;20.88;19.08;;;2.80;99.90;;;;;;4734797;30;20219;-40
2024/02/08 00:04:58;;;;;;;20.63;18.83;;;2.80;99.90;;;;;;4745745;30;20250;-40
2024/02/08 00:07:24;;;;;;;20.20;18.50;;;2.80;99.90;;;;;;4745688;30;20504;-40
2024/02/08 00:09:51;;;;;;;20.17;18.67;;;2.80;99.90;;;;;;4741212;30;20201;-40
2024/02/08 00:12:17;;;;;;;18.70;17.20;;;2.80;99.90;;;;;;4743819;30;20376;-40
2024/02/08 00:14:42;;;;;;;19.15;17.70;;;2.80;99.90;;;;;;4748469;30;20199;-40
2024/02/08 00:17:08;;;;;;;19.80;18.07;;;2.80;99.90;;;;;;4737792;30;20672;-40
2024/02/08 00:19:34;;;;;;;18.83;17.20;;;2.80;99.90;;;;;;4740596;30;20611;-43
2024/02/08 00:21:59;;;;;;;19.80;18.30;;;2.80;99.90;;;;;;4736762;30;20279;-40
2024/02/08 00:24:25;;;;;;;19.80;18.10;;;2.70;99.90;;;;;;4738965;30;20228;-41
2024/02/08 00:26:51;;;;;;;19.63;17.73;;;2.60;99.90;;;;;;4738150;30;20255;-39
2024/02/08 00:29:16;;;;;;;19.90;18.20;;;2.60;99.90;;;;;;4742833;30;20307;-40
2024/02/08 00:31:42;;;;;;;18.40;16.80;;;2.60;99.90;;;;;;4734980;30;20669;-40
2024/02/08 00:34:08;;;;;;;20.10;18.53;;;2.50;99.90;;;;;;4739079;30;20229;-40
2024/02/08 00:36:34;;;;;;;19.70;18.10;;;2.50;99.90;;;;;;4740810;30;20267;-40
2024/02/08 00:39:05;;;;;;;19.60;18.00;;;2.60;99.90;;;;;;4737302;30;20687;-40
2024/02/08 00:41:30;;;;;;;20.00;18.35;;;2.60;99.90;;;;;;4739510;30;20223;-41
2024/02/08 00:43:56;;;;;;;19.90;18.20;;;2.60;99.90;;;;;;4743658;30;20219;-41
2024/02/08 00:46:22;;;;;;;19.50;17.90;;;2.60;99.90;;;;;;4740639;30;20203;-40
2024/02/08 00:48:47;;;;;;;20.30;18.60;;;2.50;99.90;;;;;;4741162;30;20212;-40
2024/02/08 00:51:14;;;;;;;20.77;19.03;;;2.60;99.90;;;;;;4743482;30;20221;-41
2024/02/08 00:53:42;;;;;;;19.05;17.75;;;2.60;99.90;;;;;;4739717;30;20188;-41
2024/02/08 00:56:12;;;;;;;22.42;20.35;;;2.60;99.90;;;;;;4741334;30;20224;-40
2024/02/08 00:58:38;;;;;;;19.65;18.05;;;2.70;99.90;;;;;;4743535;30;20196;-42
2024/02/08 01:01:07;;;;;;;20.20;18.30;;;2.70;99.90;;;;;;4742420;30;20194;-40
2024/02/08 01:03:34;;;;;;;17.90;16.70;;;2.80;99.90;;;;;;4742125;30;20458;-41
2024/02/08 01:06:02;;;;;;;17.95;16.42;;;2.80;99.90;;;;;;4746508;30;20673;-40
2024/02/08 01:08:28;;;;;;;17.88;16.58;;;2.80;99.90;;;;;;4734475;30;20220;-40
2024/02/08 01:10:53;;;;;;;18.42;16.92;;;2.80;99.90;;;;;;4735427;30;20189;-40
2024/02/08 01:13:19;;;;;;;17.90;16.47;;;2.90;99.90;;;;;;4741412;30;20355;-40
2024/02/08 01:15:46;;;;;;;17.80;16.50;;;2.90;99.90;;;;;;4740511;30;20674;-40
2024/02/08 01:18:13;;;;;;;18.08;16.63;;;2.90;99.90;;;;;;4742484;30;20285;-40
2024/02/08 01:20:38;;;;;;;17.98;16.52;;;2.90;99.90;;;;;;4738036;30;20197;-40
2024/02/08 01:23:04;;;;;;;17.37;15.80;;;2.90;99.90;;;;;;4742271;30;20200;-40
2024/02/08 01:25:30;;;;;;;18.40;16.80;;;2.90;99.90;;;;;;4738213;30;20197;-40
2024/02/08 01:27:55;;;;;;;17.30;16.13;;;2.90;99.90;;;;;;4746652;30;20232;-40
2024/02/08 01:30:24;;;;;;;17.37;16.03;;;2.80;99.90;;;;;;4740260;30;20199;-59
2024/02/08 01:32:53;;;;;;;16.55;15.20;;;2.80;99.90;;;;;;4736638;30;20201;-60
2024/02/08 01:35:21;;;;;;;16.65;15.50;;;2.80;99.90;;;;;;4742598;30;20816;-60
2024/02/08 01:37:51;;;;;;;18.35;16.65;;;2.80;99.90;;;;;;4737144;30;20195;-58
2024/02/08 01:40:17;;;;;;;16.52;15.38;;;2.70;99.90;;;;;;4745878;30;20193;-60
2024/02/08 01:42:44;;;;;;;16.40;15.20;;;2.70;99.90;;;;;;4741718;30;20613;-62
2024/02/08 01:45:41;;;;;;;17.40;15.95;;;2.70;99.90;;;;;;4749114;30;20197;-58
2024/02/08 01:48:10;;;;;;;16.33;15.23;;;2.70;99.90;;;;;;4745182;30;20508;-59
2024/02/08 01:50:56;;;;;;;17.30;15.95;;;2.60;99.90;;;;;;4748299;30;20193;-60
2024/02/08 01:53:27;;;;;;;16.80;15.38;;;2.60;99.90;;;;;;4746297;30;20586;-58
2024/02/08 01:55:54;;;;;;;16.25;15.13;;;2.60;99.90;;;;;;4749779;30;20578;-59
2024/02/08 01:58:23;;;;;;;17.17;15.98;;;2.50;99.90;;;;;;4741283;30;20201;-57
2024/02/08 02:00:52;;;;;;;16.55;15.35;;;2.50;99.90;;;;;;4744544;30;20687;-59
2024/02/08 02:03:19;;;;;;;16.40;15.07;;;2.50;99.90;;;;;;4738284;30;20661;-39
2024/02/08 02:05:48;;;;;;;16.42;15.27;;;2.50;99.90;;;;;;4743888;30;20287;-39
2024/02/08 02:08:18;;;;;;;15.35;14.45;;;2.50;99.90;;;;;;4748291;30;20212;-39
2024/02/08 02:11:07;;;;;;;16.70;15.50;;;2.40;99.90;;;;;;4759498;30;20196;-43
2024/02/08 02:13:38;;;;;;;16.27;15.13;;;2.40;99.90;;;;;;4749057;30;20208;-38
2024/02/08 02:16:04;;;;;;;16.65;15.32;;;2.40;99.90;;;;;;4763071;30;20188;-39
2024/02/08 02:18:31;;;;;;;16.65;14.88;;;2.40;99.90;;;;;;4741356;30;20205;-39
2024/02/08 02:20:57;;;;;;;16.02;14.93;;;2.40;99.90;;;;;;4738309;30;20295;-45
2024/02/08 02:23:24;;;;;;;16.23;14.87;;;2.30;99.90;;;;;;4735572;30;20342;-38
2024/02/08 02:25:53;;;;;;;15.48;14.35;;;2.30;99.90;;;;;;4747283;30;20553;-39
2024/02/08 02:28:20;;;;;;;16.40;15.20;;;2.20;99.90;;;;;;4742516;30;20700;-38
2024/02/08 02:30:46;;;;;;;17.13;15.93;;;2.20;99.90;;;;;;4743894;30;20193;-39
2024/02/08 02:33:13;;;;;;;16.35;15.30;;;2.20;99.90;;;;;;4757867;30;20303;-40
2024/02/08 02:35:41;;;;;;;16.88;15.68;;;2.10;99.90;;;;;;4741029;30;20695;-38
2024/02/08 02:38:12;;;;;;;16.95;15.70;;;2.10;99.90;;;;;;4738790;30;20193;-42
2024/02/08 02:40:41;;;;;;;16.25;14.95;;;2.10;99.90;;;;;;4738580;30;20188;-38
2024/02/08 02:43:09;;;;;;;16.40;15.13;;;2.10;99.90;;;;;;4742863;30;20197;-38
2024/02/08 02:45:35;;;;;;;16.92;15.52;;;2.10;99.90;;;;;;4738000;30;20228;-40
2024/02/08 02:48:02;;;;;;;17.77;15.80;;;2.00;99.90;;;;;;4746590;30;20216;-40
2024/02/08 02:50:27;;;;;;;16.50;15.30;;;2.00;99.90;;;;;;4741051;30;20208;-43
2024/02/08 02:52:53;;;;;;;16.77;15.53;;;2.00;99.90;;;;;;4747422;30;20199;-43
2024/02/08 02:55:19;;;;;;;18.60;17.00;;;2.00;99.90;;;;;;4741848;30;20898;-40
2024/02/08 02:57:45;;;;;;;19.00;17.30;;;2.00;99.90;;;;;;4738933;30;20231;-59
2024/02/08 03:00:21;;;;;;;19.73;18.00;;;2.00;99.90;;;;;;4738796;30;20287;-59
2024/02/08 03:02:57;;;;;;;19.48;17.80;;;2.00;99.90;;;;;;4734862;30;20276;-58
2024/02/08 03:05:26;;;;;;;20.60;18.80;;;2.10;99.90;;;;;;4742903;30;20244;-59
2024/02/08 03:07:51;;;;;;;22.33;19.88;;;2.00;99.90;;;;;;4748688;30;20303;-57
2024/02/08 03:10:19;;;;;;;20.70;18.77;;;2.00;99.90;;;;;;4732207;30;20645;-58
2024/02/08 03:12:47;;;;;;;19.60;18.05;;;2.00;99.90;;;;;;4748119;30;20357;-58
2024/02/08 03:15:13;;;;;;;20.00;17.83;;;2.10;99.90;;;;;;4745721;30;20188;-58
2024/02/08 03:17:38;;;;;;;18.93;17.43;;;2.10;99.90;;;;;;4746129;30;20606;-58
2024/02/08 03:20:16;;;;;;;20.10;18.40;;;2.10;99.90;;;;;;4737693;30;20852;-60
2024/02/08 03:22:45;;;;;;;19.77;18.08;;;2.10;99.90;;;;;;4743182;30;20263;-57
2024/02/08 03:25:14;;;;;;;20.35;18.55;;;2.20;99.90;;;;;;4743321;30;20582;-59
2024/02/08 03:27:41;;;;;;;20.90;18.88;;;2.20;99.90;;;;;;4748754;30;20609;-59
2024/02/08 03:30:19;;;;;;;19.45;17.75;;;2.30;99.90;;;;;;4738119;30;20189;-59
2024/02/08 03:32:49;;;;;;;20.15;18.45;;;2.30;99.90;;;;;;4742376;30;20405;-59
2024/02/08 03:35:27;;;;;;;18.75;17.05;;;2.30;99.90;;;;;;4738034;30;20193;-59
2024/02/08 03:37:56;;;;;;;17.98;16.52;;;2.40;99.90;;;;;;4737159;30;20286;-58
2024/02/08 03:40:25;;;;;;;18.27;16.90;;;2.40;99.90;;;;;;4739052;30;20193;-59
2024/02/08 03:42:53;;;;;;;17.95;16.65;;;2.40;99.90;;;;;;4744318;30;20248;-59
2024/02/08 03:45:23;;;;;;;18.10;16.52;;;2.50;99.90;;;;;;4742171;30;20206;-39
2024/02/08 03:47:52;;;;;;;18.63;17.02;;;2.50;99.90;;;;;;4741640;30;20255;-39
2024/02/08 03:50:18;;;;;;;18.27;16.55;;;2.50;99.90;;;;;;4744025;30;20688;-39
2024/02/08 03:52:44;;;;;;;18.88;17.00;;;2.50;99.90;;;;;;4742781;30;20201;-39
2024/02/08 03:55:13;;;;;;;19.10;17.40;;;2.50;99.90;;;;;;4740561;30;20584;-40
2024/02/08 03:57:39;;;;;;;18.17;16.67;;;2.50;99.90;;;;;;4744101;30;20328;-40
2024/02/08 04:00:12;;;;;;;19.13;17.45;;;2.50;99.90;;;;;;4751171;30;20216;-59
2024/02/08 04:02:43;;;;;;;17.90;16.40;;;2.60;99.90;;;;;;4744514;30;20204;-59
2024/02/08 04:05:19;;;;;;;18.85;17.17;;;2.60;99.90;;;;;;4751438;30;20694;-59
2024/02/08 04:07:56;;;;;;;17.88;16.58;;;2.60;99.90;;;;;;4746162;30;20212;-59
2024/02/08 04:54:16;;;;;;;16.05;14.63;;;2.90;99.90;;;;;;4745120;30;20279;-59
2024/02/08 04:56:42;;;;;;;17.42;15.82;;;2.90;99.90;;;;;;4746401;30;20232;-60
2024/02/08 04:59:08;;;;;;;15.00;13.82;;;2.90;99.90;;;;;;4759302;30;20200;-60
2024/02/08 05:01:38;;;;;;;16.80;15.40;;;3.00;99.90;;;;;;4737889;30;20611;-61
2024/02/08 05:04:04;;;;;;;15.75;14.40;;;3.00;99.90;;;;;;4731092;30;20675;-59
2024/02/08 05:06:30;;;;;;;16.00;14.70;;;3.00;99.90;;;;;;4740461;30;20295;-60
2024/02/08 05:08:59;;;;;;;15.40;14.30;;;3.10;99.90;;;;;;4747623;30;20651;-59
2024/02/08 05:11:28;;;;;;;14.50;13.50;;;3.10;99.90;;;;;;4748637;30;20824;-49
2024/02/08 05:14:00;;;;;;;17.48;16.13;;;3.20;99.90;;;;;;4745947;30;20200;-58
2024/02/08 05:16:26;;;;;;;17.30;15.73;;;3.30;99.90;;;;;;4743755;30;20197;-58
2024/02/08 05:18:55;;;;;;;16.10;14.85;;;3.30;99.90;;;;;;4733733;30;20200;-58
2024/02/08 05:21:22;;;;;;;15.63;14.48;;;3.30;99.90;;;;;;4726245;30;20196;-39
2024/02/08 05:23:51;;;;;;;16.27;15.02;;;3.30;99.90;;;;;;4737903;30;20715;-40
2024/02/08 05:26:25;;;;;;;15.75;14.40;;;3.30;99.90;;;;;;4731506;30;20279;-39
2024/02/08 05:28:57;;;;;;;15.45;14.25;;;3.30;99.90;;;;;;4739679;30;20310;-39
2024/02/08 05:31:25;;;;;;;17.05;15.70;;;3.40;99.90;;;;;;4732653;30;20178;-40
2024/02/08 05:33:54;;;;;;;16.45;15.15;;;3.40;99.90;;;;;;4751627;30;20200;-40
2024/02/08 05:36:20;;;;;;;17.20;15.63;;;3.50;99.90;;;;;;4737242;30;20189;-41
2024/02/08 05:38:47;;;;;;;15.33;13.97;;;3.40;99.90;;;;;;4736481;30;20225;-39
2024/02/08 05:41:17;;;;;;;15.27;13.98;;;3.40;99.90;;;;;;4725847;30;20491;-39
2024/02/08 05:43:47;;;;;;;15.65;14.40;;;3.50;99.90;;;;;;4725788;30;20606;-40
2024/02/08 05:46:24;;;;;;;15.40;14.25;;;3.50;99.90;;;;;;4724243;30;20193;-40
2024/02/08 05:48:53;;;;;;;16.10;14.57;;;3.50;99.90;;;;;;4725433;30;20263;-40
2024/02/08 05:51:20;;;;;;;16.52;15.10;;;3.40;99.90;;;;;;4727348;30;20329;-40
2024/02/08 05:53:47;;;;;;;16.00;14.73;;;3.50;99.90;;;;;;4742118;30;20193;-41
2024/02/08 05:56:15;;;;;;;16.45;15.15;;;3.50;99.90;;;;;;4737630;30;20318;-38
2024/02/08 05:58:44;;;;;;;15.70;14.40;;;3.50;99.90;;;;;;4724796;30;20272;-38
2024/02/08 06:01:36;;;;;;;16.10;14.63;;;3.50;99.90;;;;;;4727501;30;20212;-52
2024/02/08 06:04:00;;;;;;;14.45;13.45;;;3.50;99.90;;;;;;4736957;30;20302;-57
2024/02/08 06:06:37;;;;;;;14.45;13.25;;;3.50;99.90;;;;;;4738863;30;20711;-59
2024/02/08 06:09:33;;;;;;;14.10;13.10;;;3.50;99.90;;;;;;4738559;30;20219;-46
2024/02/08 06:12:08;;;;;;;14.10;13.10;;;3.50;99.90;;;;;;4735916;30;20469;-58
2024/02/08 06:14:38;;;;;;;12.70;11.70;;;3.50;99.90;;;;;;4731515;30;20555;-53
2024/02/08 06:17:08;;;;;;;15.15;13.95;;;3.50;99.90;;;;;;4736635;30;20188;-57
2024/02/08 06:19:37;;;;;;;13.82;12.73;;;3.50;99.90;;;;;;4741403;30;20611;-58
2024/02/08 06:22:22;;;;;;;14.48;13.25;;;3.40;99.90;;;;;;4743195;30;20212;-57
2024/02/08 06:25:08;;;;;;;14.35;13.15;;;3.40;99.90;;;;;;4741734;30;20272;-48
2024/02/08 06:27:37;;;;;;;14.07;12.88;;;3.40;99.90;;;;;;4730646;30;20252;-57
2024/02/08 06:30:08;;;;;;;14.38;13.25;;;3.50;99.90;;;;;;4727157;30;20272;-54
2024/02/08 06:32:43;;;;;;;14.15;13.15;;;3.50;99.90;;;;;;4734517;30;20221;-58
2024/02/08 06:35:28;;;;;;;13.60;12.55;;;3.50;99.90;;;;;;4732078;30;20196;-59
2024/02/08 06:38:00;;;;;;;13.65;12.60;;;3.50;99.90;;;;;;4730895;30;20197;-39
2024/02/08 06:43:44;;;;;;;12.43;11.52;;;3.60;99.90;;;;;;4748938;30;20227;-40
2024/02/08 06:46:17;;;;;;;12.68;11.68;;;3.50;99.90;;;;;;4740507;30;20185;-39
2024/02/08 07:37:13;;;;;;;13.63;12.45;;;3.50;99.90;;;;;;4731668;30;20342;-40
2024/02/08 07:38:07;;;;;;;14.27;13.10;;;3.50;99.90;;;;;;4735238;30;20238;-59
2024/02/08 07:40:35;;;;;;;13.98;12.98;;;3.60;99.90;;;;;;4740534;30;20532;-59
2024/02/08 07:45:51;;;;;;;13.07;11.98;;;3.70;99.90;;;;;;4729999;30;20204;-59
2024/02/08 07:51:03;;;;;;;14.23;13.32;;;3.80;99.90;;;;;;4740463;30;20192;-60
2024/02/08 07:58:52;;;;;;;13.48;12.48;;;4.00;97.90;;;;;;4722399;30;20201;-56
2024/02/08 08:01:19;;;;;;;13.73;12.80;;;4.00;92.10;;;;;;4731650;30;20307;-60
2024/02/08 08:03:56;;;;;;;12.85;11.95;;;4.10;85.70;;;;;;4734227;30;20201;-59
2024/02/08 08:06:22;;;;;;;13.15;12.15;;;4.20;66.70;;;;;;4727242;30;20204;-51
2024/02/08 08:08:57;;;;;;;13.25;12.25;;;4.20;56.70;;;;;;4728518;30;20322;-59
2024/02/08 08:11:30;;;;;;;12.40;11.60;;;4.30;57.20;;;;;;4736599;30;20189;-59
2024/02/08 08:17:08;;;;;;;13.50;12.60;;;4.30;45.40;;;;;;4739790;30;20192;-59
2024/02/08 08:19:12;;;;;;;13.50;12.65;;;4.40;44.20;;;;;;4736713;30;20225;-58
2024/02/08 08:24:26;;;;;;;14.02;13.02;;;4.40;42.10;;;;;;4737391;30;21324;-60
2024/02/08 08:27:25;;;;;;;14.48;13.55;;;4.50;46.30;;;;;;4739550;30;20192;-59
2024/02/08 08:29:52;;;;;;;13.70;12.80;;;4.50;47.70;;;;;;4725650;30;20197;-60
2024/02/08 08:37:45;;;;;;;13.52;12.57;;;4.80;46.60;;;;;;4732981;30;21076;-60
2024/02/08 08:40:20;;;;;;;14.93;13.93;;;4.80;48.00;;;;;;4730866;30;20272;-59
2024/02/08 08:42:50;;;;;;;13.30;12.40;;;4.80;36.80;;;;;;4739900;30;20418;-59
2024/02/08 08:45:19;;;;;;;14.70;13.70;;;4.70;22.10;;;;;;4732174;30;20694;-54
2024/02/08 08:47:51;;;;;;;14.52;13.63;;;4.70;24.40;;;;;;4736712;30;20569;-60
2024/02/08 08:50:20;;;;;;;14.75;13.55;;;4.70;26.30;;;;;;4728629;30;20616;-60
2024/02/08 08:52:49;;;;;;;13.60;12.68;;;4.70;35.10;;;;;;4735278;30;20192;-59
2024/02/08 08:55:18;;;;;;;13.30;12.40;;;4.70;32.60;;;;;;4729848;30;20203;-40
2024/02/08 08:57:47;;;;;;;12.85;12.05;;;4.80;35.30;;;;;;4750519;30;20357;-41
2024/02/08 09:00:20;;;;;;;14.70;13.60;;;4.90;31.10;;;;;;4733191;30;20196;-40
2024/02/08 09:02:55;;;;;;;14.07;13.18;;;4.90;31.90;;;;;;4724725;30;20673;-40
2024/02/08 09:05:30;;;;;;;14.45;13.52;;;4.90;26.10;;;;;;4732615;30;20271;-40
2024/02/08 09:08:00;;;;;;;14.45;13.13;;;4.90;24.30;;;;;;4737955;30;20491;-40
2024/02/08 09:10:34;;;;;;;12.45;11.65;;;4.90;29.50;;;;;;4738180;30;20216;-42
2024/02/08 09:13:06;;;;;;;13.00;12.20;;;4.90;30.20;;;;;;4737818;30;20187;-40
2024/02/08 09:15:41;;;;;;;14.45;13.45;;;4.90;26.00;;;;;;4725581;30;20672;-40
2024/02/08 09:18:08;;;;;;;13.90;13.07;;;4.90;24.60;;;;;;4728828;30;20289;-39
2024/02/08 09:20:36;;;;;;;13.90;13.05;;;5.00;26.50;;;;;;4728996;30;20272;-40
2024/02/08 09:23:17;;;;;;;13.32;12.43;;;5.00;25.60;;;;;;4731498;30;20695;-39
2024/02/08 09:25:46;;;;;;;13.43;12.52;;;5.00;21.50;;;;;;4728838;30;20193;-40
2024/02/08 09:28:26;;;;;;;12.70;11.90;;;5.10;21.00;;;;;;4732044;30;20354;-40
2024/02/08 09:30:57;;;;;;;13.25;12.35;;;5.00;20.10;;;;;;4734109;30;20188;-40
2024/02/08 09:33:44;;;;;;;13.63;12.82;;;5.00;25.90;;;;;;4739075;30;20188;-40
2024/02/08 09:36:13;;;;;;;14.75;13.85;;;5.10;22.10;;;;;;4737129;30;20181;-40
2024/02/08 09:38:45;;;;;;;13.38;12.38;;;5.10;25.90;;;;;;4738906;30;20566;-40
2024/02/08 09:41:15;;;;;;;13.52;12.43;;;5.10;22.30;;;;;;4736880;30;20706;-40
2024/02/08 09:43:45;;;;;;;14.50;13.63;;;5.10;13.30;;;;;;4738922;30;20197;-40
2024/02/08 09:46:28;;;;;;;14.00;13.10;;;5.20;19.70;;;;;;4736704;30;20235;-39
2024/02/08 09:48:59;;;;;;;14.02;12.80;;;5.20;22.80;;;;;;4728765;30;20209;-40
2024/02/08 09:51:24;;;;;;;13.25;12.35;;;5.20;23.30;;;;;;4728846;30;20197;-40
2024/02/08 09:53:54;;;;;;;13.30;12.40;;;5.20;21.50;;;;;;4738899;30;20936;-39
2024/02/08 09:56:35;;;;;;;13.88;12.93;;;5.20;19.80;;;;;;4732817;30;20268;-40
2024/02/08 09:59:07;;;;;;;13.63;12.75;;;5.10;17.90;;;;;;4740835;30;20193;-39
2024/02/08 10:01:42;;;;;;;14.52;13.52;;;5.10;23.10;;;;;;4734802;30;20184;-40
2024/02/08 10:04:16;;;;;;;13.75;12.95;;;5.10;31.50;;;;;;4741981;30;20375;-40
2024/02/08 10:06:45;;;;;;;14.57;13.57;;;5.00;36.20;;;;;;4737182;30;20223;-40
2024/02/08 10:12:06;;;;;;;15.10;13.90;;;5.10;49.70;;;;;;4738536;30;20195;-52
2024/02/08 10:14:41;;;;;;;15.15;13.82;;;5.20;54.60;;;;;;4730378;30;20222;-53
2024/02/08 10:17:28;;;;;;;13.60;12.80;;;5.20;45.10;;;;;;4739572;30;20188;-59
2024/02/08 10:22:53;;;;;;;14.30;13.30;;;5.30;53.60;;;;;;4726044;30;20176;-56
2024/02/08 10:28:22;;;;;;;14.73;13.52;;;5.50;41.20;;;;;;4737947;30;20223;-59
2024/02/08 10:31:05;;;;;;;13.60;12.67;;;5.50;44.30;;;;;;4736445;30;20451;-58
2024/02/08 10:33:38;;;;;;;13.70;12.80;;;5.60;38.80;;;;;;4735598;30;20844;-49
2024/02/08 10:36:17;;;;;;;14.82;13.80;;;5.60;22.90;;;;;;4737075;30;20535;-60
2024/02/08 10:38:55;;;;;;;13.20;12.32;;;5.60;26.40;;;;;;4737860;30;20443;-60
2024/02/08 10:41:35;;;;;;;12.07;11.45;;;5.60;26.20;;;;;;4735168;30;20204;-59
2024/02/08 10:44:05;;;;;;;13.80;12.75;;;5.60;32.90;;;;;;4740360;30;20604;-56
2024/02/08 10:46:32;;;;;;;13.80;12.70;;;5.50;34.10;;;;;;4728705;30;20726;-61
2024/02/08 10:49:09;;;;;;;14.00;13.10;;;5.50;30.70;;;;;;4735068;30;20592;-61
2024/02/08 10:51:43;;;;;;;12.15;11.45;;;5.40;40.50;;;;;;4730613;30;20205;-61
2024/02/08 10:54:14;;;;;;;13.10;12.10;;;5.40;42.80;;;;;;4741010;30;20187;-59
2024/02/08 10:56:47;;;;;;;13.52;12.73;;;5.40;42.70;;;;;;4732934;30;20316;-61
2024/02/08 10:59:14;;;;;;;14.27;13.10;;;5.40;44.40;;;;;;4740934;30;20220;-55
2024/02/08 11:04:20;;;;;;;12.55;11.82;;;5.40;48.80;;;;;;4739449;30;20185;-60
2024/02/08 11:07:22;;;;;;;13.10;12.30;;;5.50;59.80;;;;;;4733767;30;20303;-60
2024/02/08 11:09:47;;;;;;;13.45;12.40;;;5.70;56.00;;;;;;4732501;30;20663;-40
2024/02/08 11:12:21;;;;;;;13.03;12.23;;;5.80;60.10;;;;;;4735238;30;20299;-37
2024/02/08 11:15:13;;;;;;;13.45;12.55;;;6.00;48.70;;;;;;4740778;30;20195;-39
2024/02/08 11:17:49;;;;;;;12.90;11.90;;;6.20;40.70;;;;;;4736599;30;20250;-38
2024/02/08 11:20:44;;;;;;;14.43;13.50;;;6.30;28.10;;;;;;4731126;30;20473;-39
2024/02/08 11:23:18;;;;;;;14.20;13.20;;;6.50;22.80;;;;;;4729112;30;20561;-40
2024/02/08 11:25:47;;;;;;;13.47;12.60;;;6.60;21.40;;;;;;4730844;30;20943;-41
2024/02/08 11:28:15;;;;;;;16.23;14.63;;;6.70;1.00;;;;;;4738620;30;20925;-39
2024/02/08 11:30:41;;;;;;;13.27;12.40;;;6.80;1.00;;;;;;4733936;30;20776;-39
2024/02/08 11:33:14;;;;;;;13.80;12.90;;;6.80;1.00;;;;;;4723830;30;20443;-39
2024/02/08 11:35:56;;;;;;;14.10;13.20;;;6.70;1.00;;;;;;4740618;30;20890;-39
2024/02/08 11:38:26;;;;;;;14.00;13.20;;;6.70;1.00;;;;;;4729575;30;20427;-39
2024/02/08 11:40:55;;;;;;;14.87;13.93;;;6.80;1.00;;;;;;4740198;30;20439;-39
2024/02/08 11:43:25;;;;;;;13.50;12.67;;;6.70;1.00;;;;;;4730175;30;20452;-38
2024/02/08 11:45:56;;;;;;;15.70;14.40;;;6.80;1.00;;;;;;4740224;30;20500;-37
2024/02/08 11:48:41;;;;;;;15.03;13.93;;;6.80;1.00;;;;;;4730503;30;20482;-41
2024/02/08 11:51:10;;;;;;;15.30;14.40;;;6.60;1.00;;;;;;4740188;30;20789;-39
2024/02/08 11:53:38;;;;;;;15.50;14.50;;;6.60;1.00;;;;;;4732432;30;20623;-39
2024/02/08 11:56:08;;;;;;;15.30;13.93;;;6.50;1.00;;;;;;4750805;30;20660;-39
2024/02/08 11:58:41;;;;;;;15.60;14.50;;;6.50;1.00;;;;;;4727160;30;20606;-43
2024/02/08 12:01:08;;;;;;;15.63;14.63;;;6.50;1.00;;;;;;4736750;30;20431;-41
2024/02/08 12:03:41;;;;;;;15.27;14.17;;;6.70;1.00;;;;;;4736190;30;20927;-39
2024/02/08 12:06:22;;;;;;;14.97;14.07;;;6.60;1.00;;;;;;4739036;30;20439;-39
2024/02/08 12:09:04;;;;;;;15.23;14.23;;;6.60;1.00;;;;;;4736853;30;20465;-38
2024/02/08 12:11:31;;;;;;;15.70;14.67;;;6.60;2.80;;;;;;4738333;30;20458;-39
2024/02/08 12:14:10;;;;;;;14.13;13.17;;;6.70;4.00;;;;;;4733125;30;20475;-39
2024/02/08 12:16:47;;;;;;;14.87;13.87;;;6.70;1.00;;;;;;4739622;30;20457;-39
2024/02/08 12:19:16;;;;;;;14.00;13.20;;;6.50;1.00;;;;;;4731604;30;20545;-39
2024/02/08 12:21:42;;;;;;;13.57;12.47;;;6.60;1.90;;;;;;4722749;30;20463;-39
2024/02/08 12:24:15;;;;;;;14.70;13.50;;;6.60;3.20;;;;;;4722274;30;20511;-39
2024/02/08 12:26:42;;;;;;;14.67;13.50;;;6.60;1.00;;;;;;4733227;30;20249;-38
2024/02/08 12:29:16;;;;;;;14.97;14.07;;;6.50;3.70;;;;;;4730991;30;20573;-39
2024/02/08 12:31:45;;;;;;;15.27;14.33;;;6.50;8.20;;;;;;4734833;30;20745;-39
2024/02/08 12:34:15;;;;;;;14.53;13.63;;;6.60;14.10;;;;;;4732528;30;20426;-39
2024/02/08 12:36:45;;;;;;;17.87;16.57;;;6.60;19.00;;;;;;4739339;30;20446;-39
2024/02/08 12:39:19;;;;;;;15.13;14.13;;;6.60;24.70;;;;;;4732860;30;20898;-39
2024/02/08 12:41:46;;;;;;;21.40;19.30;;;6.70;32.70;;;;;;4753116;30;20438;-40
2024/02/08 12:44:14;;;;;;;15.67;14.37;;;6.70;37.10;;;;;;4734933;30;20516;-45
2024/02/08 12:46:42;;;;;;;16.13;14.93;;;6.60;34.80;;;;;;4736636;30;20608;-39
2024/02/08 12:49:08;;;;;;;15.20;14.00;;;6.70;48.20;;;;;;4731151;30;20839;-39
2024/02/08 12:51:36;;;;;;;15.53;14.43;;;6.60;44.90;;;;;;4738454;30;20447;-40
2024/02/08 12:54:03;;;;;;;17.27;16.07;;;6.50;48.10;;;;;;4737957;30;20423;-39
2024/02/08 12:56:29;;;;;;;15.67;14.50;;;6.60;59.90;;;;;;4733050;30;20498;-38
2024/02/08 12:59:01;;;;;;;16.00;14.80;;;6.60;74.80;;;;;;4723293;30;20548;-39
2024/02/08 13:01:34;;;;;;;15.80;14.90;;;6.70;71.80;;;;;;4723020;30;20200;-39
2024/02/08 13:04:00;;;;;;;15.25;14.27;;;6.60;56.10;;;;;;4724271;30;20451;-39
2024/02/08 13:06:25;;;;;;;15.73;14.63;;;6.60;52.50;;;;;;4727742;30;20197;-40
2024/02/08 13:09:16;;;;;;;15.40;14.47;;;6.70;53.90;;;;;;4732379;30;20768;-39
2024/02/08 13:11:44;;;;;;;14.57;13.77;;;6.50;56.00;;;;;;4731193;30;20260;-39
2024/02/08 13:14:14;;;;;;;15.95;14.75;;;6.20;84.90;;;;;;4732896;30;20449;-39
2024/02/08 13:16:40;;;;;;;15.77;14.68;;;6.10;99.90;;;;;;4739191;30;20200;-39
2024/02/08 13:19:05;;;;;;;14.00;13.10;;;6.10;99.90;;;;;;4748640;30;20566;-41
2024/02/08 13:21:31;;;;;;;12.27;11.50;;;6.10;99.90;;;;;;4739015;30;20653;-39
2024/02/08 13:23:57;;;;;;;14.37;13.37;;;6.00;99.90;;;;;;4736793;30;20197;-39
2024/02/08 13:26:22;;;;;;;14.50;13.50;;;6.00;99.90;;;;;;4739359;30;20240;-38
2024/02/08 13:28:48;;;;;;;14.37;13.37;;;6.00;99.90;;;;;;4734986;30;20550;-39
2024/02/08 13:31:18;;;;;;;15.10;14.10;;;6.00;99.90;;;;;;4724917;30;20665;-39
2024/02/08 13:33:44;;;;;;;13.98;13.07;;;6.00;99.90;;;;;;4742490;30;21210;-42
2024/02/08 13:36:11;;;;;;;15.65;14.35;;;6.00;99.90;;;;;;4741893;30;20192;-40
2024/02/08 13:38:40;;;;;;;15.63;14.32;;;6.00;99.90;;;;;;4734728;30;20679;-39
2024/02/08 13:41:09;;;;;;;14.80;13.80;;;6.00;99.90;;;;;;4740498;30;20196;-40
2024/02/08 13:43:39;;;;;;;14.57;13.63;;;6.00;99.90;;;;;;4741868;30;20201;-39
2024/02/08 13:46:07;;;;;;;15.70;14.60;;;6.00;99.90;;;;;;4734732;30;20203;-42
2024/02/08 13:48:33;;;;;;;14.70;13.70;;;6.00;99.90;;;;;;4740453;30;20231;-41
2024/02/08 13:51:06;;;;;;;15.43;14.32;;;6.10;99.90;;;;;;4735500;30;20526;-39
2024/02/08 13:53:32;;;;;;;13.20;12.35;;;6.10;99.90;;;;;;4741881;30;20272;-39
2024/02/08 13:55:58;;;;;;;14.40;13.40;;;6.10;99.90;;;;;;4734856;30;20634;-40
2024/02/08 13:58:25;;;;;;;15.52;14.52;;;6.10;99.90;;;;;;4731681;30;20937;-40
2024/02/08 14:00:54;;;;;;;14.82;13.80;;;6.10;99.90;;;;;;4738628;30;20193;-44
2024/02/08 14:03:22;;;;;;;14.70;13.70;;;6.10;99.90;;;;;;4731984;30;20195;-39
2024/02/08 14:05:51;;;;;;;15.63;14.52;;;6.10;99.90;;;;;;4735129;30;20197;-39
2024/02/08 14:08:18;;;;;;;14.55;13.55;;;6.10;99.90;;;;;;4742079;30;20216;-39
2024/02/08 14:10:44;;;;;;;16.02;14.75;;;6.10;99.90;;;;;;4730242;30;20840;-41
2024/02/08 14:13:11;;;;;;;15.05;14.05;;;6.10;99.90;;;;;;4741663;30;20193;-41
2024/02/08 14:15:46;;;;;;;16.83;15.73;;;6.00;99.90;;;;;;4742119;30;20593;-39
2024/02/08 14:18:30;;;;;;;16.70;15.60;;;6.00;99.90;;;;;;4755191;30;20643;-41
2024/02/08 14:20:56;;;;;;;18.33;16.75;;;6.00;99.90;;;;;;4732973;30;20422;-40
2024/02/08 14:23:38;;;;;;;15.70;14.60;;;6.00;99.90;;;;;;4742003;30;20189;-40
2024/02/08 14:28:32;;;;;;;18.30;16.63;;;6.00;99.90;;;;;;4741002;30;20582;-39
2024/02/08 14:31:00;;;;;;;17.60;16.30;;;5.90;99.90;;;;;;4735515;30;20196;-40
2024/02/08 14:33:27;;;;;;;18.92;17.42;;;5.80;99.90;;;;;;4739911;30;20192;-41
2024/02/08 14:35:54;;;;;;;18.85;17.35;;;5.80;99.90;;;;;;4736446;30;20193;-40
2024/02/08 14:38:20;;;;;;;18.52;17.02;;;5.80;99.90;;;;;;4725741;30;20346;-40
2024/02/08 14:40:47;;;;;;;18.88;17.38;;;5.80;99.90;;;;;;4737807;30;20634;-41
2024/02/08 14:43:25;;;;;;;18.98;17.48;;;5.80;99.90;;;;;;4741230;30;20216;-40
2024/02/08 14:45:53;;;;;;;19.80;18.10;;;5.80;99.90;;;;;;4735478;30;20715;-40
2024/02/08 14:48:27;;;;;;;17.83;16.23;;;5.80;99.90;;;;;;4740511;30;20605;-40
2024/02/08 14:51:05;;;;;;;18.05;16.60;;;5.80;99.90;;;;;;4740854;30;20551;-41
2024/02/08 14:53:32;;;;;;;18.95;17.45;;;5.80;99.90;;;;;;4741398;30;20810;-44
2024/02/08 14:56:01;;;;;;;18.67;16.98;;;5.80;99.90;;;;;;4736742;30;20634;-41
2024/02/08 14:58:33;;;;;;;19.20;17.60;;;5.80;99.90;;;;;;4739941;30;20215;-41
2024/02/08 15:01:08;;;;;;;17.88;16.48;;;5.80;99.90;;;;;;4732313;30;20193;-40
2024/02/08 15:03:44;;;;;;;17.83;16.45;;;5.70;99.90;;;;;;4741111;30;20187;-42